createdAt,value
2023-02-13T00:00:59.472Z,43.77
2023-02-13T00:03:27.691Z,44.10
2023-02-13T00:05:55.634Z,41.97
2023-02-13T00:08:23.459Z,42.93
2023-02-13T00:10:51.344Z,42.27
2023-02-13T00:13:19.198Z,41.30
2023-02-13T00:15:56.679Z,40.70
2023-02-13T00:18:24.665Z,43.17
2023-02-13T00:21:00.091Z,39.87
2023-02-13T00:23:28.222Z,41.00
2023-02-13T00:25:56.182Z,40.20
2023-02-13T00:28:24.091Z,41.30
2023-02-13T00:30:53.909Z,39.70
2023-02-13T00:33:21.803Z,39.73
2023-02-13T00:35:49.681Z,40.10
2023-02-13T00:38:17.507Z,40.13
2023-02-13T00:40:45.383Z,40.57
2023-02-13T00:43:13.252Z,38.73
2023-02-13T00:45:41.126Z,38.17
2023-02-13T00:48:10.334Z,39.63
2023-02-13T00:50:38.196Z,40.37
2023-02-13T00:53:06.070Z,40.07
2023-02-13T00:55:35.373Z,39.33
2023-02-13T00:58:03.311Z,41.47
2023-02-13T01:00:31.217Z,38.87
2023-02-13T01:02:59.078Z,40.77
2023-02-13T01:05:29.146Z,38.90
2023-02-13T01:07:57.060Z,39.63
2023-02-13T01:10:24.987Z,39.73
2023-02-13T01:12:53.240Z,40.43
2023-02-13T01:15:21.246Z,39.63
2023-02-13T01:17:49.094Z,42.13
2023-02-13T01:20:18.752Z,42.60
2023-02-13T01:22:48.029Z,41.63
2023-02-13T01:25:15.927Z,42.90
2023-02-13T01:27:43.838Z,45.57
2023-02-13T01:30:13.916Z,44.67
2023-02-13T01:32:42.686Z,44.27
2023-02-13T01:35:11.983Z,43.30
2023-02-13T01:37:40.097Z,43.40
2023-02-13T01:40:13.619Z,43.73
2023-02-13T01:42:42.255Z,43.30
2023-02-13T01:45:25.050Z,42.77
2023-02-13T01:47:57.375Z,43.57
2023-02-13T01:50:31.172Z,44.07
2023-02-13T01:53:03.161Z,43.33
2023-02-13T01:55:34.058Z,44.83
2023-02-13T01:58:05.979Z,46.47
2023-02-13T02:00:35.087Z,47.30
2023-02-13T02:03:08.593Z,59.03
2023-02-13T02:05:38.149Z,60.43
2023-02-13T02:08:10.893Z,54.03
2023-02-13T02:10:41.031Z,55.63
2023-02-13T02:13:12.564Z,51.70
2023-02-13T02:15:42.315Z,46.63
2023-02-13T02:18:15.455Z,43.80
2023-02-13T02:21:07.010Z,42.13
2023-02-13T02:24:04.797Z,41.30
2023-02-13T02:27:07.269Z,41.07
2023-02-13T02:30:06.463Z,38.07
2023-02-13T02:33:03.598Z,39.37
2023-02-13T02:35:40.197Z,40.83
2023-02-13T02:38:18.994Z,38.63
2023-02-13T02:41:02.714Z,36.83
2023-02-13T02:43:43.360Z,36.43
2023-02-13T02:46:18.371Z,38.87
2023-02-13T02:49:12.969Z,38.57
2023-02-13T02:51:49.659Z,38.20
2023-02-13T02:54:42.986Z,38.03
2023-02-13T02:57:16.031Z,38.40
2023-02-13T03:00:02.973Z,39.57
2023-02-13T03:03:04.249Z,43.67
2023-02-13T03:05:54.834Z,47.07
2023-02-13T03:08:42.927Z,47.37
2023-02-13T03:11:28.173Z,46.17
2023-02-13T03:13:58.448Z,47.37
2023-02-13T03:16:43.788Z,44.50
2023-02-13T03:19:36.596Z,43.90
2023-02-13T03:22:19.565Z,42.80
2023-02-13T03:24:54.450Z,41.70
2023-02-13T03:27:52.882Z,44.40
2023-02-13T03:30:30.706Z,41.83
2023-02-13T03:33:12.460Z,43.33
2023-02-13T03:36:03.508Z,42.67
2023-02-13T03:38:43.645Z,43.37
2023-02-13T03:41:19.908Z,45.33
2023-02-13T03:43:56.473Z,45.47
2023-02-13T03:46:27.498Z,47.30
2023-02-13T03:49:14.714Z,52.53
2023-02-13T03:51:49.319Z,52.33
2023-02-13T03:54:42.334Z,49.93
2023-02-13T03:57:30.831Z,52.33
2023-02-13T03:59:59.761Z,56.07
2023-02-13T04:02:34.847Z,55.13
2023-02-13T04:05:10.178Z,55.37
2023-02-13T04:07:38.054Z,54.43
2023-02-13T04:10:11.303Z,54.23
2023-02-13T04:12:43.897Z,55.50
2023-02-13T04:15:17.606Z,68.00
2023-02-13T04:17:50.082Z,60.23
2023-02-13T04:20:18.200Z,62.37
2023-02-13T04:22:47.820Z,62.17
2023-02-13T04:25:18.804Z,60.23
2023-02-13T04:27:46.767Z,61.77
2023-02-13T04:30:15.622Z,54.93
2023-02-13T04:32:43.491Z,57.37
2023-02-13T04:35:13.760Z,54.03
2023-02-13T04:37:41.686Z,57.70
2023-02-13T04:40:10.818Z,60.63
2023-02-13T04:42:40.036Z,56.07
2023-02-13T04:45:08.454Z,52.43
2023-02-13T04:47:36.330Z,52.20
2023-02-13T04:50:04.279Z,46.90
2023-02-13T04:52:32.354Z,46.03
2023-02-13T04:55:00.248Z,41.13
2023-02-13T04:57:28.102Z,41.63
2023-02-13T04:59:57.604Z,40.03
2023-02-13T05:02:25.458Z,39.30
2023-02-13T05:04:53.388Z,41.90
2023-02-13T05:07:21.253Z,39.97
2023-02-13T05:09:49.103Z,40.80
2023-02-13T05:12:17.038Z,40.80
2023-02-13T05:14:45.210Z,43.33
2023-02-13T05:17:14.438Z,41.87
2023-02-13T05:19:42.335Z,42.07
2023-02-13T05:22:29.454Z,41.33
2023-02-13T05:24:58.556Z,40.43
2023-02-13T05:27:26.496Z,41.70
2023-02-13T05:29:54.391Z,41.33
2023-02-13T05:32:23.618Z,42.07
2023-02-13T05:34:51.433Z,40.07
2023-02-13T05:37:19.253Z,42.40
2023-02-13T05:39:47.099Z,42.50
2023-02-13T05:42:15.024Z,41.77
2023-02-13T05:44:42.966Z,41.53
2023-02-13T05:47:10.898Z,44.30
2023-02-13T05:49:40.115Z,46.97
2023-02-13T05:52:07.973Z,58.87
2023-02-13T05:54:36.167Z,56.40
2023-02-13T05:57:04.233Z,52.93
2023-02-13T05:59:32.070Z,47.70
2023-02-13T06:02:00.045Z,53.17
2023-02-13T06:04:28.380Z,55.23
2023-02-13T06:06:57.828Z,51.00
2023-02-13T06:09:25.715Z,50.97
2023-02-13T06:11:53.718Z,49.07
2023-02-13T06:14:21.705Z,48.13
2023-02-13T06:16:49.648Z,50.03
2023-02-13T06:19:19.085Z,50.73
2023-02-13T06:21:46.986Z,51.63
2023-02-13T06:24:16.303Z,59.13
2023-02-13T06:26:44.178Z,63.77
2023-02-13T06:29:12.959Z,60.17
2023-02-13T06:31:40.976Z,65.77
2023-02-13T06:34:09.237Z,63.50
2023-02-13T06:36:37.605Z,64.43
2023-02-13T06:39:06.219Z,60.80
2023-02-13T06:41:35.655Z,56.40
2023-02-13T06:44:03.554Z,55.17
2023-02-13T06:46:31.478Z,57.57
2023-02-13T06:48:59.452Z,51.37
2023-02-13T06:51:27.422Z,46.53
2023-02-13T06:53:55.256Z,44.70
2023-02-13T06:56:23.297Z,40.37
2023-02-13T06:58:52.564Z,42.03
2023-02-13T07:01:20.524Z,43.47
2023-02-13T07:03:48.845Z,41.77
2023-02-13T07:06:19.630Z,48.80
2023-02-13T07:08:47.527Z,43.50
2023-02-13T07:11:19.492Z,42.20
2023-02-13T07:13:49.776Z,38.43
2023-02-13T07:16:19.954Z,38.57
2023-02-13T07:18:48.374Z,39.60
2023-02-13T07:21:16.307Z,41.27
2023-02-13T07:23:44.150Z,43.50
2023-02-13T07:26:12.277Z,42.40
2023-02-13T07:28:40.277Z,41.03
2023-02-13T07:31:08.690Z,40.93
2023-02-13T07:33:38.143Z,37.77
2023-02-13T07:36:09.448Z,38.33
2023-02-13T07:38:37.350Z,38.80
2023-02-13T07:41:05.853Z,40.37
2023-02-13T07:43:34.041Z,38.40
2023-02-13T07:46:03.144Z,39.27
2023-02-13T07:48:31.772Z,39.67
2023-02-13T07:51:03.798Z,37.63
2023-02-13T07:53:31.826Z,36.87
2023-02-13T07:55:59.842Z,38.33
2023-02-13T07:58:27.992Z,37.07
2023-02-13T08:00:55.948Z,38.37
2023-02-13T08:03:23.933Z,36.90
2023-02-13T08:05:51.809Z,35.07
2023-02-13T08:08:21.244Z,37.93
2023-02-13T08:11:05.841Z,38.43
2023-02-13T08:13:34.062Z,38.97
2023-02-13T08:16:01.987Z,38.80
2023-02-13T08:18:29.834Z,39.17
2023-02-13T08:20:57.708Z,39.07
2023-02-13T08:23:27.260Z,40.77
2023-02-13T08:25:55.961Z,40.13
2023-02-13T08:28:24.018Z,41.97
2023-02-13T08:30:51.971Z,41.90
2023-02-13T08:33:19.946Z,42.77
2023-02-13T08:35:47.820Z,44.60
2023-02-13T08:38:15.710Z,43.13
2023-02-13T08:40:44.977Z,42.67
2023-02-13T08:43:16.609Z,43.67
2023-02-13T08:45:44.509Z,42.87
2023-02-13T08:48:12.308Z,44.90
2023-02-13T08:50:40.232Z,46.33
2023-02-13T08:53:08.260Z,43.73
2023-02-13T08:55:36.259Z,44.40
2023-02-13T08:58:06.282Z,42.53
2023-02-13T09:00:34.508Z,42.97
2023-02-13T09:03:03.300Z,42.77
2023-02-13T09:05:33.014Z,40.63
2023-02-13T09:08:02.897Z,42.23
2023-02-13T09:10:31.111Z,42.13
2023-02-13T09:12:59.061Z,38.33
2023-02-13T09:15:28.485Z,38.90
2023-02-13T09:17:56.500Z,39.83
2023-02-13T09:20:24.630Z,45.33
2023-02-13T09:22:52.769Z,40.97
2023-02-13T09:25:21.710Z,37.43
2023-02-13T09:27:49.742Z,36.13
2023-02-13T09:30:23.583Z,37.67
2023-02-13T09:32:54.300Z,34.43
2023-02-13T09:35:23.529Z,34.47
2023-02-13T09:37:51.528Z,35.87
2023-02-13T09:40:25.579Z,35.13
2023-02-13T09:42:56.593Z,35.10
2023-02-13T09:45:25.779Z,35.70
2023-02-13T09:47:55.643Z,37.57
2023-02-13T09:50:27.968Z,35.47
2023-02-13T09:52:58.094Z,37.83
2023-02-13T09:55:30.895Z,36.17
2023-02-13T09:58:04.394Z,35.97
2023-02-13T10:00:37.324Z,38.83
2023-02-13T10:03:29.888Z,35.37
2023-02-13T10:06:06.882Z,38.50
2023-02-13T10:08:52.191Z,39.30
2023-02-13T10:11:41.774Z,40.80
2023-02-13T10:14:16.542Z,38.13
2023-02-13T10:16:46.759Z,35.90
2023-02-13T10:19:30.424Z,36.43
2023-02-13T10:22:02.037Z,36.80
2023-02-13T10:24:37.500Z,41.93
2023-02-13T10:27:18.496Z,37.83
2023-02-13T10:30:09.603Z,38.43
2023-02-13T10:32:43.884Z,36.57
2023-02-13T10:35:21.806Z,36.97
2023-02-13T10:37:53.096Z,36.87
2023-02-13T10:40:21.517Z,37.13
2023-02-13T10:42:59.937Z,36.17
2023-02-13T10:45:58.675Z,35.03
2023-02-13T10:48:48.608Z,35.13
2023-02-13T10:51:26.327Z,37.13
2023-02-13T10:54:11.598Z,35.37
2023-02-13T10:56:44.923Z,35.90
2023-02-13T10:59:36.302Z,33.20
2023-02-13T11:02:22.611Z,32.33
2023-02-13T11:04:52.339Z,32.90
2023-02-13T11:07:24.612Z,34.50
2023-02-13T11:09:56.130Z,33.40
2023-02-13T11:12:29.438Z,30.87
2023-02-13T11:14:58.958Z,31.17
2023-02-13T11:17:29.906Z,32.23
2023-02-13T11:19:59.479Z,30.63
2023-02-13T11:22:33.681Z,31.23
2023-02-13T11:25:05.493Z,32.60
2023-02-13T11:27:35.518Z,34.03
2023-02-13T11:30:07.140Z,33.23
2023-02-13T11:32:36.380Z,31.23
2023-02-13T11:35:28.617Z,34.93
2023-02-13T11:38:21.877Z,32.80
2023-02-13T11:40:52.921Z,31.40
2023-02-13T11:43:28.028Z,31.83
2023-02-13T11:46:04.839Z,31.43
2023-02-13T11:48:33.108Z,26.90
2023-02-13T11:51:01.316Z,26.03
2023-02-13T11:53:32.684Z,26.10
2023-02-13T11:56:07.929Z,26.27
2023-02-13T11:58:36.620Z,25.30
2023-02-13T12:01:28.375Z,25.33
2023-02-13T12:04:08.348Z,24.17
2023-02-13T12:06:40.575Z,22.50
2023-02-13T12:09:16.635Z,22.50
2023-02-13T12:11:49.817Z,19.80
2023-02-13T12:14:22.448Z,17.40
2023-02-13T12:16:54.025Z,20.83
2023-02-13T12:19:27.154Z,20.23
2023-02-13T12:22:08.462Z,18.10
2023-02-13T12:24:57.020Z,18.90
2023-02-13T12:27:35.379Z,17.23
2023-02-13T12:30:27.880Z,18.37
2023-02-13T12:33:05.924Z,14.67
2023-02-13T12:35:54.233Z,15.50
2023-02-13T12:38:35.592Z,16.03
2023-02-13T12:41:19.198Z,12.90
2023-02-13T12:44:08.732Z,13.13
2023-02-13T12:46:41.636Z,12.10
2023-02-13T12:49:29.807Z,13.37
2023-02-13T12:52:15.114Z,12.97
2023-02-13T12:55:00.559Z,12.03
2023-02-13T12:57:43.575Z,12.33
2023-02-13T13:00:23.467Z,10.57
2023-02-13T13:03:17.414Z,12.53
2023-02-13T13:06:11.713Z,12.23
2023-02-13T13:09:03.183Z,13.13
2023-02-13T13:11:48.197Z,12.80
2023-02-13T13:14:24.904Z,13.33
2023-02-13T13:17:01.705Z,13.17
2023-02-13T13:19:38.676Z,14.43
2023-02-13T13:22:14.476Z,13.10
2023-02-13T13:24:55.468Z,15.33
2023-02-13T13:27:27.644Z,13.40
2023-02-13T13:30:00.579Z,13.60
2023-02-13T13:32:30.602Z,12.77
2023-02-13T13:34:59.036Z,13.10
2023-02-13T13:37:35.199Z,12.83
2023-02-13T13:40:17.245Z,13.47
2023-02-13T13:42:52.201Z,13.03
2023-02-13T13:45:34.368Z,13.10
2023-02-13T13:48:18.137Z,14.20
2023-02-13T13:50:46.736Z,14.00
2023-02-13T13:53:19.378Z,14.93
2023-02-13T13:56:06.901Z,13.93
2023-02-13T13:58:38.567Z,13.77
2023-02-13T14:01:23.470Z,13.40
2023-02-13T14:03:52.860Z,13.63
2023-02-13T14:06:22.892Z,13.93
2023-02-13T14:09:29.005Z,13.23
2023-02-13T14:11:58.532Z,14.30
2023-02-13T14:14:53.752Z,13.80
2023-02-13T14:17:57.192Z,12.70
2023-02-13T14:20:35.770Z,13.83
2023-02-13T14:23:33.073Z,13.40
2023-02-13T14:26:37.994Z,13.67
2023-02-13T14:29:38.805Z,14.77
2023-02-13T14:32:18.031Z,13.87
2023-02-13T14:34:54.292Z,13.77
2023-02-13T14:37:30.270Z,15.03
2023-02-13T14:40:40.124Z,15.50
2023-02-13T14:43:22.133Z,16.60
2023-02-13T14:45:55.496Z,14.27
2023-02-13T14:48:34.286Z,14.70
2023-02-13T14:51:05.043Z,14.33
2023-02-13T14:53:53.281Z,14.83
2023-02-13T14:56:24.366Z,14.53
2023-02-13T14:58:59.928Z,13.27
2023-02-13T15:01:34.005Z,14.33
2023-02-13T15:04:14.882Z,14.50
2023-02-13T15:06:49.781Z,15.40
2023-02-13T15:09:39.937Z,15.33
2023-02-13T15:12:35.398Z,13.60
2023-02-13T15:15:30.459Z,14.63
2023-02-13T15:18:06.281Z,13.57
2023-02-13T15:20:36.189Z,13.33
2023-02-13T15:23:07.595Z,14.20
2023-02-13T15:25:38.151Z,13.23
2023-02-13T15:28:08.421Z,13.27
2023-02-13T15:30:37.988Z,13.30
2023-02-13T15:33:18.265Z,15.07
2023-02-13T15:35:46.818Z,13.10
2023-02-13T15:38:27.442Z,13.83
2023-02-13T15:40:59.221Z,14.20
2023-02-13T15:43:35.837Z,14.53
2023-02-13T15:46:07.192Z,13.20
2023-02-13T15:48:36.645Z,14.47
2023-02-13T15:51:04.913Z,14.83
2023-02-13T15:53:34.403Z,14.97
2023-02-13T15:56:04.607Z,15.27
2023-02-13T15:58:35.302Z,15.50
2023-02-13T16:01:06.720Z,16.07
2023-02-13T16:03:36.853Z,14.27
2023-02-13T16:06:06.696Z,15.13
2023-02-13T16:08:38.888Z,17.07
2023-02-13T16:11:29.884Z,16.07
2023-02-13T16:14:14.146Z,16.80
2023-02-13T16:16:50.019Z,16.90
2023-02-13T16:19:25.480Z,17.77
2023-02-13T16:21:54.943Z,18.83
2023-02-13T16:24:25.954Z,17.87
2023-02-13T16:26:54.697Z,17.50
2023-02-13T16:29:26.267Z,19.00
2023-02-13T16:32:04.324Z,17.80
2023-02-13T16:34:33.216Z,17.17
2023-02-13T16:37:01.258Z,17.10
2023-02-13T16:39:32.665Z,17.67
2023-02-13T16:42:01.787Z,18.53
2023-02-13T16:44:31.991Z,18.37
2023-02-13T16:47:02.968Z,19.80
2023-02-13T16:49:33.566Z,19.37
2023-02-13T16:52:11.800Z,19.67
2023-02-13T16:54:50.392Z,20.23
2023-02-13T16:57:24.976Z,21.40
2023-02-13T17:00:08.457Z,19.93
2023-02-13T17:02:37.123Z,19.93
2023-02-13T17:05:21.453Z,19.60
2023-02-13T17:07:51.946Z,21.33
2023-02-13T17:10:23.612Z,21.23
2023-02-13T17:12:52.682Z,20.63
2023-02-13T17:15:25.550Z,21.77
2023-02-13T17:17:54.029Z,21.43
2023-02-13T17:20:24.294Z,22.17
2023-02-13T17:22:53.954Z,21.37
2023-02-13T17:25:25.123Z,20.97
2023-02-13T17:27:57.605Z,21.37
2023-02-13T17:30:28.528Z,20.40
2023-02-13T17:33:00.079Z,20.73
2023-02-13T17:35:28.039Z,21.30
2023-02-13T17:37:55.941Z,23.17
2023-02-13T17:40:29.533Z,22.17
2023-02-13T17:42:59.504Z,21.03
2023-02-13T17:45:29.676Z,22.23
2023-02-13T17:47:58.178Z,21.83
2023-02-13T17:50:26.509Z,21.27
2023-02-13T17:52:54.697Z,22.30
2023-02-13T17:55:26.426Z,20.17
2023-02-13T17:57:56.472Z,20.57
2023-02-13T18:00:27.019Z,20.47
2023-02-13T18:02:55.946Z,19.33
2023-02-13T18:05:24.012Z,19.43
2023-02-13T18:07:52.399Z,20.43
2023-02-13T18:10:23.222Z,20.27
2023-02-13T18:12:53.778Z,19.33
2023-02-13T18:15:22.387Z,21.77
2023-02-13T18:17:50.529Z,21.87
2023-02-13T18:20:20.680Z,19.93
2023-02-13T18:22:51.304Z,18.60
2023-02-13T18:25:20.405Z,18.57
2023-02-13T18:27:49.072Z,19.40
2023-02-13T18:30:20.651Z,18.80
2023-02-13T18:32:56.216Z,18.97
2023-02-13T18:35:24.914Z,18.80
2023-02-13T18:37:52.818Z,19.33
2023-02-13T18:40:21.080Z,18.57
2023-02-13T18:42:51.095Z,20.37
2023-02-13T18:45:20.670Z,19.40
2023-02-13T18:47:48.625Z,20.00
2023-02-13T18:50:16.522Z,19.47
2023-02-13T18:52:44.983Z,18.77
2023-02-13T18:55:12.899Z,19.93
2023-02-13T18:57:43.455Z,19.40
2023-02-13T19:00:13.974Z,19.47
2023-02-13T19:02:43.190Z,20.53
2023-02-13T19:05:11.264Z,19.23
2023-02-13T19:07:39.165Z,19.80
2023-02-13T19:10:07.922Z,20.03
2023-02-13T19:12:35.878Z,22.40
2023-02-13T19:15:04.242Z,21.30
2023-02-13T19:17:33.486Z,20.27
2023-02-13T19:20:03.069Z,22.40
2023-02-13T19:22:31.184Z,24.00
2023-02-13T19:24:59.132Z,22.80
2023-02-13T19:27:27.884Z,23.27
2023-02-13T19:29:56.260Z,22.43
2023-02-13T19:32:24.150Z,22.23
2023-02-13T19:34:54.135Z,22.50
2023-02-13T19:37:25.224Z,22.50
2023-02-13T19:39:53.607Z,23.50
2023-02-13T19:42:22.079Z,22.83
2023-02-13T19:44:50.287Z,29.20
2023-02-13T19:47:18.489Z,22.60
2023-02-13T19:49:48.110Z,23.83
2023-02-13T19:52:16.499Z,21.63
2023-02-13T19:54:45.897Z,23.20
2023-02-13T19:57:14.717Z,23.23
2023-02-13T19:59:43.466Z,22.80
2023-02-13T20:02:16.009Z,23.70
2023-02-13T20:04:44.229Z,21.67
2023-02-13T20:07:12.234Z,21.93
2023-02-13T20:09:41.374Z,21.37
2023-02-13T20:12:10.574Z,23.40
2023-02-13T20:14:39.066Z,21.03
2023-02-13T20:17:09.461Z,21.57
2023-02-13T20:19:38.512Z,20.67
2023-02-13T20:22:06.581Z,23.07
2023-02-13T20:24:34.925Z,21.37
2023-02-13T20:27:02.844Z,20.87
2023-02-13T20:29:33.602Z,20.17
2023-02-13T20:32:02.035Z,19.90
2023-02-13T20:34:37.613Z,19.70
2023-02-13T20:37:15.666Z,19.87
2023-02-13T20:39:43.722Z,19.83
2023-02-13T20:42:12.148Z,19.13
2023-02-13T20:44:41.617Z,19.37
2023-02-13T20:47:09.757Z,19.20
2023-02-13T20:49:37.973Z,19.33
2023-02-13T20:52:06.299Z,19.03
2023-02-13T20:54:34.434Z,19.67
2023-02-13T20:57:02.390Z,18.40
2023-02-13T20:59:33.122Z,18.60
2023-02-13T21:02:02.448Z,18.23
2023-02-13T21:04:32.680Z,17.73
2023-02-13T21:07:00.574Z,18.20
2023-02-13T21:09:28.747Z,17.37
2023-02-13T21:11:56.592Z,17.30
2023-02-13T21:14:24.457Z,17.67
2023-02-13T21:16:52.384Z,17.33
2023-02-13T21:19:21.814Z,17.63
2023-02-13T21:21:49.687Z,17.60
2023-02-13T21:24:20.280Z,17.17
2023-02-13T21:26:49.937Z,17.67
2023-02-13T21:29:17.796Z,17.57
2023-02-13T21:31:48.528Z,16.83
2023-02-13T21:34:18.049Z,18.00
2023-02-13T21:36:47.651Z,17.17
2023-02-13T21:39:16.208Z,17.43
2023-02-13T21:41:45.758Z,17.80
2023-02-13T21:44:14.809Z,17.03
2023-02-13T21:46:43.726Z,16.53
2023-02-13T21:49:14.359Z,16.40
2023-02-13T21:51:44.023Z,15.90
2023-02-13T21:54:13.900Z,17.50
2023-02-13T21:56:43.742Z,18.30
2023-02-13T21:59:15.666Z,19.23
2023-02-13T22:01:43.997Z,21.20
2023-02-13T22:04:11.956Z,19.70
2023-02-13T22:06:41.298Z,20.07
2023-02-13T22:09:11.284Z,19.87
2023-02-13T22:11:40.961Z,21.73
2023-02-13T22:14:12.751Z,20.27
2023-02-13T22:16:42.532Z,20.60
2023-02-13T22:19:13.929Z,22.10
2023-02-13T22:21:41.855Z,21.57
2023-02-13T22:24:10.251Z,20.63
2023-02-13T22:26:42.205Z,20.53
2023-02-13T22:29:12.247Z,20.80
2023-02-13T22:31:40.305Z,22.33
2023-02-13T22:34:08.405Z,21.13
2023-02-13T22:36:39.098Z,20.50
2023-02-13T22:39:08.629Z,19.90
2023-02-13T22:41:36.741Z,18.90
2023-02-13T22:44:06.422Z,19.20
2023-02-13T22:46:35.130Z,18.70
2023-02-13T22:49:03.601Z,19.57
2023-02-13T22:51:34.016Z,18.37
2023-02-13T22:54:02.366Z,19.40
2023-02-13T22:56:31.692Z,19.07
2023-02-13T22:59:00.816Z,19.17
2023-02-13T23:01:30.609Z,19.57
2023-02-13T23:03:58.685Z,18.90
2023-02-13T23:06:28.583Z,17.73
2023-02-13T23:08:57.298Z,19.60
2023-02-13T23:11:44.444Z,19.93
2023-02-13T23:14:12.882Z,19.50
2023-02-13T23:17:01.490Z,19.30
2023-02-13T23:19:30.116Z,19.30
2023-02-13T23:21:58.394Z,19.90
2023-02-13T23:24:26.381Z,19.20
2023-02-13T23:26:54.230Z,19.33
2023-02-13T23:29:22.180Z,20.93
2023-02-13T23:31:51.576Z,21.03
2023-02-13T23:34:19.523Z,20.53
2023-02-13T23:36:47.464Z,21.70
2023-02-13T23:39:15.370Z,20.93
2023-02-13T23:41:43.267Z,19.40
2023-02-13T23:44:11.125Z,19.47
2023-02-13T23:46:39.175Z,20.07
2023-02-13T23:49:08.497Z,20.77
2023-02-13T23:51:36.368Z,21.87
2023-02-13T23:54:04.964Z,28.90
2023-02-13T23:56:33.057Z,38.17
2023-02-13T23:59:00.859Z,39.80
